createdAt,value
2022-12-03T00:01:16.062Z,101473.69
2022-12-03T00:03:43.849Z,101482.50
2022-12-03T00:06:11.366Z,101485.19
2022-12-03T00:08:38.564Z,101470.25
2022-12-03T00:11:05.987Z,101479.19
2022-12-03T00:13:33.012Z,101471.34
2022-12-03T00:16:00.372Z,101473.91
2022-12-03T00:18:27.502Z,101471.25
2022-12-03T00:20:54.593Z,101471.25
2022-12-03T00:23:21.640Z,101472.94
2022-12-03T00:25:48.734Z,101474.63
2022-12-03T00:28:15.939Z,101465.72
2022-12-03T00:30:43.672Z,101484.44
2022-12-03T00:33:11.033Z,101476.56
2022-12-03T00:35:38.217Z,101480.09
2022-12-03T00:38:05.212Z,101473.78
2022-12-03T00:40:32.358Z,101474.78
2022-12-03T00:42:59.517Z,101469.59
2022-12-03T00:45:26.553Z,101468.69
2022-12-03T00:47:53.721Z,101470.34
2022-12-03T00:50:20.950Z,101467.69
2022-12-03T00:52:48.166Z,101466.03
2022-12-03T00:55:15.681Z,101463.34
2022-12-03T00:57:43.245Z,101467.72
2022-12-03T01:00:12.662Z,101465.81
2022-12-03T01:02:40.175Z,101456.19
2022-12-03T01:05:08.742Z,101457.06
2022-12-03T01:07:36.498Z,101460.59
2022-12-03T01:10:05.981Z,101460.56
2022-12-03T01:12:33.217Z,101457.06
2022-12-03T01:15:00.428Z,101460.59
2022-12-03T01:17:27.490Z,101453.47
2022-12-03T01:19:54.561Z,101458.78
2022-12-03T01:22:21.724Z,101459.72
2022-12-03T01:24:48.786Z,101460.56
2022-12-03T01:27:15.918Z,101451.66
2022-12-03T01:29:43.093Z,101457.84
2022-12-03T01:32:17.709Z,101456.13
2022-12-03T01:34:51.735Z,101453.53
2022-12-03T01:37:21.665Z,101450.88
2022-12-03T01:39:48.896Z,101454.41
2022-12-03T01:42:20.391Z,101455.25
2022-12-03T01:44:59.043Z,101451.66
2022-12-03T01:47:34.018Z,101456.09
2022-12-03T01:50:23.985Z,101454.28
2022-12-03T01:52:52.185Z,101448.16
2022-12-03T01:55:23.982Z,101456.13
2022-12-03T01:57:54.601Z,101450.88
2022-12-03T02:00:27.366Z,101451.72
2022-12-03T02:03:03.009Z,101458.84
2022-12-03T02:05:32.825Z,101453.47
2022-12-03T02:08:00.817Z,101453.53
2022-12-03T02:10:33.235Z,101456.19
2022-12-03T02:13:05.664Z,101451.72
2022-12-03T02:15:32.980Z,101448.25
2022-12-03T02:18:00.866Z,101446.44
2022-12-03T02:20:28.366Z,101438.47
2022-12-03T02:23:01.976Z,101434.97
2022-12-03T02:25:33.178Z,101434.97
2022-12-03T02:28:02.028Z,101435.81
2022-12-03T02:30:30.957Z,101436.75
2022-12-03T02:32:58.913Z,101434.09
2022-12-03T02:35:36.926Z,101436.69
2022-12-03T02:38:39.708Z,101434.84
2022-12-03T02:41:32.142Z,101429.53
2022-12-03T02:43:59.163Z,101426.88
2022-12-03T02:46:26.782Z,101427.81
2022-12-03T02:48:54.150Z,101430.47
2022-12-03T02:51:21.332Z,101423.38
2022-12-03T02:53:52.200Z,101413.75
2022-12-03T02:56:24.472Z,101405.81
2022-12-03T02:58:56.809Z,101406.69
2022-12-03T03:01:23.900Z,101412.00
2022-12-03T03:03:52.552Z,101411.97
2022-12-03T03:06:21.015Z,101409.31
2022-12-03T03:08:48.518Z,101418.06
2022-12-03T03:11:15.725Z,101418.06
2022-12-03T03:13:43.351Z,101421.56
2022-12-03T03:16:10.881Z,101420.63
2022-12-03T03:18:38.705Z,101416.25
2022-12-03T03:21:06.647Z,101419.75
2022-12-03T03:23:34.403Z,101417.97
2022-12-03T03:26:07.479Z,101421.47
2022-12-03T03:28:39.583Z,101407.34
2022-12-03T03:31:08.853Z,101409.09
2022-12-03T03:33:38.804Z,101410.91
2022-12-03T03:36:07.597Z,101409.97
2022-12-03T03:38:35.633Z,101405.56
2022-12-03T03:41:05.599Z,101403.78
2022-12-03T03:43:35.261Z,101394.97
2022-12-03T03:46:05.256Z,101403.81
2022-12-03T03:48:34.753Z,101402.97
2022-12-03T03:51:04.301Z,101402.97
2022-12-03T03:53:31.623Z,101403.03
2022-12-03T03:55:59.147Z,101403.91
2022-12-03T03:58:26.376Z,101400.47
2022-12-03T04:00:53.536Z,101398.72
2022-12-03T04:03:20.854Z,101396.06
2022-12-03T04:05:51.048Z,101390.75
2022-12-03T04:08:18.525Z,101390.81
2022-12-03T04:11:04.066Z,101396.13
2022-12-03T04:13:31.240Z,101381.91
2022-12-03T04:15:58.271Z,101386.34
2022-12-03T04:18:43.269Z,101376.59
2022-12-03T04:21:36.221Z,101381.91
2022-12-03T04:24:05.011Z,101384.56
2022-12-03T04:26:50.443Z,101382.84
2022-12-03T04:29:19.325Z,101383.63
2022-12-03T04:32:22.079Z,101378.31
2022-12-03T04:35:07.390Z,101380.97
2022-12-03T04:37:34.499Z,101380.06
2022-12-03T04:40:01.950Z,101376.47
2022-12-03T04:42:29.102Z,101375.53
2022-12-03T04:44:58.471Z,101372.00
2022-12-03T04:47:25.668Z,101369.25
2022-12-03T04:49:52.799Z,101369.31
2022-12-03T04:52:21.391Z,101360.59
2022-12-03T04:54:48.553Z,101363.19
2022-12-03T04:57:15.975Z,101362.25
2022-12-03T04:59:43.121Z,101357.88
2022-12-03T05:02:10.245Z,101357.94
2022-12-03T05:04:37.544Z,101357.88
2022-12-03T05:07:04.560Z,101359.72
2022-12-03T05:09:32.889Z,101354.38
2022-12-03T05:12:00.043Z,101364.13
2022-12-03T05:14:27.322Z,101361.41
2022-12-03T05:16:54.606Z,101364.91
2022-12-03T05:19:41.682Z,101363.16
2022-12-03T05:22:08.769Z,101364.00
2022-12-03T05:24:35.792Z,101364.00
2022-12-03T05:27:02.965Z,101360.50
2022-12-03T05:29:30.069Z,101364.91
2022-12-03T05:31:57.157Z,101356.94
2022-12-03T05:34:24.213Z,101357.00
2022-12-03T05:36:51.299Z,101354.34
2022-12-03T05:39:18.354Z,101357.94
2022-12-03T05:42:03.807Z,101356.19
2022-12-03T05:44:30.997Z,101354.47
2022-12-03T05:46:58.104Z,101355.38
2022-12-03T05:49:25.171Z,101351.81
2022-12-03T05:51:58.044Z,101354.47
2022-12-03T05:54:25.668Z,101357.13
2022-12-03T05:56:53.295Z,101356.25
2022-12-03T05:59:20.539Z,101358.91
2022-12-03T06:01:47.593Z,101355.31
2022-12-03T06:04:15.562Z,101351.72
2022-12-03T06:06:43.489Z,101340.31
2022-12-03T06:09:10.884Z,101351.72
2022-12-03T06:11:38.077Z,101349.97
2022-12-03T06:14:05.183Z,101349.97
2022-12-03T06:16:32.739Z,101347.34
2022-12-03T06:19:01.149Z,101342.97
2022-12-03T06:21:28.980Z,101355.28
2022-12-03T06:23:56.018Z,101345.56
2022-12-03T06:26:23.123Z,101340.31
2022-12-03T06:28:50.398Z,101341.16
2022-12-03T06:31:17.583Z,101350.94
2022-12-03T06:33:44.790Z,101346.41
2022-12-03T06:36:11.992Z,101347.41
2022-12-03T06:38:39.239Z,101344.69
2022-12-03T06:41:06.279Z,101350.00
2022-12-03T06:43:33.444Z,101349.06
2022-12-03T06:46:00.951Z,101345.56
2022-12-03T06:48:28.441Z,101339.25
2022-12-03T06:50:55.534Z,101348.19
2022-12-03T06:53:23.821Z,101351.59
2022-12-03T06:55:50.876Z,101347.13
2022-12-03T06:58:18.321Z,101349.78
2022-12-03T07:00:46.604Z,101361.34
2022-12-03T07:03:13.753Z,101346.28
2022-12-03T07:05:40.897Z,101348.94
2022-12-03T07:08:08.027Z,101341.88
2022-12-03T07:10:35.276Z,101348.97
2022-12-03T07:13:02.510Z,101345.41
2022-12-03T07:15:29.643Z,101342.75
2022-12-03T07:17:56.871Z,101347.19
2022-12-03T07:20:23.938Z,101348.06
2022-12-03T07:22:50.993Z,101357.75
2022-12-03T07:25:23.095Z,101348.06
2022-12-03T07:27:50.961Z,101350.72
2022-12-03T07:30:18.918Z,101360.50
2022-12-03T07:32:45.937Z,101355.97
2022-12-03T07:35:13.446Z,101353.28
2022-12-03T07:37:40.491Z,101349.69
2022-12-03T07:40:09.979Z,101354.94
2022-12-03T07:42:37.501Z,101362.03
2022-12-03T07:45:05.317Z,101354.03
2022-12-03T07:47:32.378Z,101355.81
2022-12-03T07:50:00.032Z,101356.69
2022-12-03T07:52:27.183Z,101355.75
2022-12-03T07:54:54.484Z,101354.81
2022-12-03T07:57:21.638Z,101354.81
2022-12-03T07:59:48.775Z,101353.09
2022-12-03T08:02:21.315Z,101354.78
2022-12-03T08:04:48.950Z,101354.78
2022-12-03T08:07:16.071Z,101350.31
2022-12-03T08:09:43.338Z,101359.13
2022-12-03T08:12:19.414Z,101358.19
2022-12-03T08:14:46.552Z,101351.19
2022-12-03T08:17:17.972Z,101357.31
2022-12-03T08:19:48.446Z,101356.47
2022-12-03T08:22:16.731Z,101357.31
2022-12-03T08:24:44.168Z,101360.00
2022-12-03T08:27:19.907Z,101356.50
2022-12-03T08:29:47.165Z,101352.94
2022-12-03T08:32:14.568Z,101357.31
2022-12-03T08:34:44.512Z,101349.34
2022-12-03T08:37:18.038Z,101351.94
2022-12-03T08:39:51.225Z,101351.91
2022-12-03T08:42:41.904Z,101352.75
2022-12-03T08:45:40.044Z,101346.59
2022-12-03T08:48:19.397Z,101351.81
2022-12-03T08:50:47.273Z,101347.34
2022-12-03T08:53:14.555Z,101347.34
2022-12-03T08:55:53.104Z,101345.53
2022-12-03T08:58:44.859Z,101348.97
2022-12-03T09:01:12.137Z,101347.25
2022-12-03T09:03:57.863Z,101361.34
2022-12-03T09:06:25.234Z,101350.69
2022-12-03T09:08:52.354Z,101357.72
2022-12-03T09:11:19.614Z,101351.59
2022-12-03T09:13:46.794Z,101344.41
2022-12-03T09:16:14.091Z,101353.31
2022-12-03T09:18:41.530Z,101351.59
2022-12-03T09:21:08.633Z,101351.59
2022-12-03T09:23:35.800Z,101346.22
2022-12-03T09:26:03.020Z,101343.63
2022-12-03T09:28:30.269Z,101356.91
2022-12-03T09:30:59.395Z,101353.31
2022-12-03T09:33:26.545Z,101344.41
2022-12-03T09:35:53.700Z,101342.56
2022-12-03T09:38:21.022Z,101340.84
2022-12-03T09:40:48.119Z,101336.31
2022-12-03T09:43:17.932Z,101335.47
2022-12-03T09:45:47.708Z,101333.84
2022-12-03T09:48:22.306Z,101326.91
2022-12-03T09:50:50.799Z,101341.06
2022-12-03T09:53:22.137Z,101336.53
2022-12-03T09:55:50.332Z,101340.03
2022-12-03T09:58:19.469Z,101328.63
2022-12-03T10:00:52.450Z,101331.13
2022-12-03T10:03:29.687Z,101329.38
2022-12-03T10:05:57.984Z,101322.28
2022-12-03T10:08:32.471Z,101324.91
2022-12-03T10:10:59.845Z,101328.44
2022-12-03T10:13:30.670Z,101320.56
2022-12-03T10:16:00.602Z,101325.00
2022-12-03T10:18:35.683Z,101321.41
2022-12-03T10:21:29.656Z,101308.16
2022-12-03T10:24:33.026Z,101315.16
2022-12-03T10:27:04.374Z,101310.66
2022-12-03T10:29:36.614Z,101308.78
2022-12-03T10:32:08.427Z,101298.34
2022-12-03T10:34:39.754Z,101292.97
2022-12-03T10:37:16.496Z,101291.09
2022-12-03T10:40:01.765Z,101284.84
2022-12-03T10:42:33.385Z,101283.09
2022-12-03T10:45:20.165Z,101283.00
2022-12-03T10:48:15.959Z,101274.09
2022-12-03T10:51:05.789Z,101280.25
2022-12-03T10:53:36.851Z,101274.06
2022-12-03T10:56:08.148Z,101267.69
2022-12-03T10:58:40.047Z,101265.84
2022-12-03T11:01:17.757Z,101271.28
2022-12-03T11:03:46.510Z,101265.09
2022-12-03T11:06:17.386Z,101265.88
2022-12-03T11:08:53.017Z,101259.66
2022-12-03T11:11:28.511Z,101269.38
2022-12-03T11:14:02.798Z,101270.22
2022-12-03T11:16:39.591Z,101267.53
2022-12-03T11:19:13.293Z,101273.63
2022-12-03T11:22:05.722Z,101274.59
2022-12-03T11:24:36.871Z,101268.38
2022-12-03T11:27:04.390Z,101267.41
2022-12-03T11:30:00.301Z,101266.63
2022-12-03T11:33:00.881Z,101264.88
2022-12-03T11:35:37.998Z,101258.59
2022-12-03T11:38:53.608Z,101247.97
2022-12-03T11:41:34.409Z,101259.53
2022-12-03T11:44:26.645Z,101255.00
2022-12-03T11:46:54.661Z,101247.03
2022-12-03T11:49:37.786Z,101248.78
2022-12-03T11:52:40.766Z,101249.56
2022-12-03T11:55:16.308Z,101242.56
2022-12-03T11:57:43.879Z,101239.91
2022-12-03T12:00:25.729Z,101239.66
2022-12-03T12:02:56.489Z,101236.16
2022-12-03T12:05:32.783Z,101239.53
2022-12-03T12:08:03.275Z,101253.78
2022-12-03T12:10:49.482Z,101242.16
2022-12-03T12:13:32.130Z,101243.03
2022-12-03T12:16:07.202Z,101243.88
2022-12-03T12:18:46.061Z,101242.03
2022-12-03T12:21:50.151Z,101242.03
2022-12-03T12:24:48.438Z,101235.03
2022-12-03T12:27:35.657Z,101233.13
2022-12-03T12:30:13.913Z,101214.53
2022-12-03T12:32:58.410Z,101211.03
2022-12-03T12:35:29.581Z,101209.28
2022-12-03T12:38:11.953Z,101202.19
2022-12-03T12:40:45.684Z,101195.06
2022-12-03T12:43:33.870Z,101197.72
2022-12-03T12:46:45.470Z,101194.94
2022-12-03T12:49:00.110Z,101192.34
2022-12-03T12:51:29.452Z,101184.38
2022-12-03T12:53:58.016Z,101188.72
2022-12-03T12:56:25.187Z,101193.22
2022-12-03T12:58:53.604Z,101192.28
2022-12-03T13:01:28.811Z,101193.13
2022-12-03T13:03:57.246Z,101190.56
2022-12-03T13:06:28.237Z,101186.69
2022-12-03T13:08:56.127Z,101189.44
2022-12-03T13:11:32.217Z,101183.38
2022-12-03T13:14:05.460Z,101175.44
2022-12-03T13:16:35.562Z,101183.50
2022-12-03T13:19:02.765Z,101182.56
2022-12-03T13:21:43.179Z,101182.44
2022-12-03T13:24:32.370Z,101183.38
2022-12-03T13:27:05.795Z,101181.59
2022-12-03T13:29:32.887Z,101177.97
2022-12-03T13:32:02.707Z,101181.50
2022-12-03T13:34:33.933Z,101180.63
2022-12-03T13:37:02.465Z,101181.50
2022-12-03T13:39:35.147Z,101186.81
2022-12-03T13:42:26.891Z,101179.81
2022-12-03T13:44:54.580Z,101176.25
2022-12-03T13:47:22.982Z,101182.38
2022-12-03T13:49:55.278Z,101172.53
2022-12-03T13:52:25.903Z,101172.63
2022-12-03T13:54:56.306Z,101176.19
2022-12-03T13:57:23.445Z,101166.41
2022-12-03T13:59:50.585Z,101161.06
2022-12-03T14:02:17.866Z,101157.63
2022-12-03T14:04:45.009Z,101154.03
2022-12-03T14:07:12.358Z,101158.38
2022-12-03T14:09:39.493Z,101156.66
2022-12-03T14:12:25.341Z,101154.91
2022-12-03T14:14:54.174Z,101159.31
2022-12-03T14:17:21.555Z,101165.41
2022-12-03T14:19:48.774Z,101163.63
2022-12-03T14:22:15.862Z,101168.03
2022-12-03T14:24:42.933Z,101177.72
2022-12-03T14:27:10.109Z,101177.72
2022-12-03T14:29:37.185Z,101185.63
2022-12-03T14:32:04.720Z,101181.22
2022-12-03T14:34:32.409Z,101187.38
2022-12-03T14:36:59.557Z,101188.16
2022-12-03T14:39:26.653Z,101189.91
2022-12-03T14:42:12.784Z,101189.91
2022-12-03T14:44:47.007Z,101203.16
2022-12-03T14:47:16.983Z,101203.16
2022-12-03T14:49:44.424Z,101206.63
2022-12-03T14:52:12.735Z,101199.56
2022-12-03T14:54:44.329Z,101201.31
2022-12-03T14:57:14.256Z,101206.63
2022-12-03T14:59:44.214Z,101209.22
2022-12-03T15:02:12.873Z,101203.03
2022-12-03T15:04:41.479Z,101207.34
2022-12-03T15:07:10.891Z,101214.53
2022-12-03T15:09:38.313Z,101217.31
2022-12-03T15:12:06.095Z,101219.19
2022-12-03T15:14:33.232Z,101215.59
2022-12-03T15:17:00.417Z,101214.75
2022-12-03T15:19:27.675Z,101207.75
2022-12-03T15:21:54.716Z,101212.06
2022-12-03T15:24:21.719Z,101216.53
2022-12-03T15:26:49.697Z,101212.97
2022-12-03T15:29:16.743Z,101209.47
2022-12-03T15:31:44.615Z,101212.94
2022-12-03T15:34:11.819Z,101212.94
2022-12-03T15:36:39.050Z,101217.31
2022-12-03T15:39:06.092Z,101218.19
2022-12-03T15:41:33.836Z,101219.06
2022-12-03T15:44:02.231Z,101217.28
2022-12-03T15:46:31.532Z,101222.53
2022-12-03T15:48:59.137Z,101222.47
2022-12-03T15:51:26.147Z,101226.84
2022-12-03T15:53:53.324Z,101217.06
2022-12-03T15:56:20.608Z,101218.88
2022-12-03T15:58:47.679Z,101217.94
2022-12-03T16:01:15.265Z,101226.78
2022-12-03T16:03:42.977Z,101217.94
2022-12-03T16:06:10.254Z,101214.34
2022-12-03T16:08:37.311Z,101217.03
2022-12-03T16:11:04.433Z,101216.13
2022-12-03T16:13:31.500Z,101225.88
2022-12-03T16:15:58.602Z,101218.66
2022-12-03T16:18:25.770Z,101221.31
2022-12-03T16:20:52.918Z,101226.66
2022-12-03T16:23:20.005Z,101219.56
2022-12-03T16:25:50.630Z,101225.75
2022-12-03T16:28:18.139Z,101220.41
2022-12-03T16:30:45.599Z,101219.47
2022-12-03T16:33:12.968Z,101224.81
2022-12-03T16:35:40.060Z,101223.94
2022-12-03T16:38:07.210Z,101222.09
2022-12-03T16:40:34.312Z,101224.81
2022-12-03T16:43:03.442Z,101224.81
2022-12-03T16:45:51.661Z,101229.25
2022-12-03T16:48:19.205Z,101231.13
2022-12-03T16:50:46.570Z,101230.25
2022-12-03T16:53:14.901Z,101237.28
2022-12-03T16:55:42.145Z,101238.19
2022-12-03T16:58:09.814Z,101232.88
2022-12-03T17:00:37.164Z,101228.41
2022-12-03T17:03:05.158Z,101231.94
2022-12-03T17:05:33.602Z,101224.81
2022-12-03T17:08:00.757Z,101230.06
2022-12-03T17:10:27.955Z,101230.94
2022-12-03T17:13:10.927Z,101231.84
2022-12-03T17:15:39.650Z,101228.31
2022-12-03T17:18:07.946Z,101223.00
2022-12-03T17:20:36.016Z,101220.34
2022-12-03T17:23:03.617Z,101226.53
2022-12-03T17:25:31.162Z,101222.00
2022-12-03T17:27:58.241Z,101216.78
2022-12-03T17:30:25.428Z,101212.31
2022-12-03T17:32:52.573Z,101221.19
2022-12-03T17:35:19.935Z,101215.88
2022-12-03T17:37:47.318Z,101215.88
2022-12-03T17:40:17.433Z,101214.97
2022-12-03T17:42:46.025Z,101214.97
2022-12-03T17:45:13.616Z,101212.34
2022-12-03T17:47:40.732Z,101209.63
2022-12-03T17:50:08.983Z,101213.16
2022-12-03T17:52:36.016Z,101212.34
2022-12-03T17:55:14.559Z,101210.53
2022-12-03T17:57:48.805Z,101207.88
2022-12-03T18:00:17.045Z,101207.97
2022-12-03T18:02:45.074Z,101203.50
2022-12-03T18:05:14.341Z,101203.50
2022-12-03T18:07:41.782Z,101195.66
2022-12-03T18:10:09.030Z,101197.31
2022-12-03T18:12:36.061Z,101201.91
2022-12-03T18:15:03.306Z,101201.06
2022-12-03T18:17:30.721Z,101194.91
2022-12-03T18:19:58.229Z,101191.38
2022-12-03T18:22:27.844Z,101192.94
2022-12-03T18:24:55.767Z,101201.09
2022-12-03T18:27:24.173Z,101197.91
2022-12-03T18:29:51.627Z,101193.25
2022-12-03T18:32:29.168Z,101203.16
2022-12-03T18:34:57.871Z,101198.91
2022-12-03T18:37:28.425Z,101194.44
2022-12-03T18:39:56.591Z,101195.25
2022-12-03T18:42:24.560Z,101197.91
2022-12-03T18:44:55.243Z,101198.03
2022-12-03T18:47:26.782Z,101197.91
2022-12-03T18:49:54.742Z,101211.22
2022-12-03T18:52:25.092Z,101205.88
2022-12-03T18:54:52.617Z,101200.50
2022-12-03T18:57:19.856Z,101200.50
2022-12-03T18:59:47.039Z,101201.31
2022-12-03T19:05:09.448Z,101203.09
2022-12-03T19:07:36.828Z,101206.53
2022-12-03T19:10:04.660Z,101201.22
2022-12-03T19:12:32.879Z,101198.56
2022-12-03T19:14:59.841Z,101200.31
2022-12-03T19:17:27.616Z,101198.44
2022-12-03T19:19:55.624Z,101201.19
2022-12-03T19:22:24.122Z,101195.84
2022-12-03T19:24:51.172Z,101205.63
2022-12-03T19:27:19.387Z,101197.69
2022-12-03T19:29:49.735Z,101197.66
2022-12-03T19:32:17.411Z,101200.38
2022-12-03T19:34:44.572Z,101198.56
2022-12-03T19:37:11.668Z,101200.31
2022-12-03T19:39:41.255Z,101200.38
2022-12-03T19:42:08.269Z,101200.16
2022-12-03T19:44:35.328Z,101196.72
2022-12-03T19:47:02.739Z,101198.56
2022-12-03T19:49:29.886Z,101195.13
2022-12-03T19:51:56.946Z,101195.16
2022-12-03T19:54:24.516Z,101193.44
2022-12-03T19:56:52.111Z,101201.34
2022-12-03T19:59:19.347Z,101204.00
2022-12-03T20:01:46.685Z,101207.50
2022-12-03T20:04:14.121Z,101198.44
2022-12-03T20:06:41.361Z,101204.81
2022-12-03T20:09:19.530Z,101197.81
2022-12-03T20:11:56.496Z,101198.66
2022-12-03T20:14:32.242Z,101201.56
2022-12-03T20:17:00.396Z,101189.09
2022-12-03T20:19:27.526Z,101196.16
2022-12-03T20:22:00.766Z,101193.56
2022-12-03T20:24:29.547Z,101194.50
2022-12-03T20:26:56.705Z,101186.44
2022-12-03T20:29:23.647Z,101187.31
2022-12-03T20:31:50.757Z,101181.38
2022-12-03T20:34:17.848Z,101171.53
2022-12-03T20:36:45.634Z,101171.53
2022-12-03T20:39:12.701Z,101174.00
2022-12-03T20:41:39.862Z,101166.09
2022-12-03T20:44:07.966Z,101177.41
2022-12-03T20:46:35.420Z,101167.00
2022-12-03T20:49:02.436Z,101170.69
2022-12-03T20:51:33.778Z,101161.88
2022-12-03T20:54:01.694Z,101163.69
2022-12-03T20:56:33.697Z,101167.28
2022-12-03T20:59:06.710Z,101173.28
2022-12-03T21:01:36.176Z,101162.88
2022-12-03T21:04:05.747Z,101165.41
2022-12-03T21:06:36.173Z,101159.16
2022-12-03T21:09:06.622Z,101170.69
2022-12-03T21:11:35.947Z,101160.91
2022-12-03T21:14:04.252Z,101156.44
2022-12-03T21:19:23.170Z,101159.03
2022-12-03T21:21:50.422Z,101166.16
2022-12-03T21:24:17.730Z,101160.09
2022-12-03T21:26:45.053Z,101160.91
2022-12-03T21:29:12.118Z,101153.78
2022-12-03T21:31:40.067Z,101145.66
2022-12-03T21:34:08.674Z,101148.31
2022-12-03T21:36:36.117Z,101140.41
2022-12-03T21:39:04.817Z,101141.41
2022-12-03T21:41:35.597Z,101135.19
2022-12-03T21:44:03.317Z,101136.00
2022-12-03T21:47:10.099Z,101134.28
2022-12-03T21:49:19.462Z,101134.56
2022-12-03T21:51:46.993Z,101132.75
2022-12-03T21:54:15.314Z,101130.94
2022-12-03T21:56:42.658Z,101128.25
2022-12-03T21:59:10.585Z,101116.66
2022-12-03T22:01:39.676Z,101119.22
2022-12-03T22:04:09.953Z,101121.91
2022-12-03T22:06:36.985Z,101120.13
2022-12-03T22:09:04.480Z,101114.69
2022-12-03T22:11:34.476Z,101120.84
2022-12-03T22:14:04.718Z,101118.97
2022-12-03T22:16:31.817Z,101122.56
2022-12-03T22:18:58.817Z,101119.06
2022-12-03T22:21:26.467Z,101130.56
2022-12-03T22:23:53.549Z,101127.91
2022-12-03T22:26:20.590Z,101131.28
2022-12-03T22:28:50.731Z,101135.81
2022-12-03T22:31:19.246Z,101140.22
2022-12-03T22:33:48.572Z,101138.53
2022-12-03T22:36:21.184Z,101136.75
2022-12-03T22:38:50.630Z,101131.38
2022-12-03T22:41:19.164Z,101130.47
2022-12-03T22:43:47.379Z,101131.38
2022-12-03T22:46:15.612Z,101134.91
2022-12-03T22:48:44.978Z,101137.56
2022-12-03T22:51:22.681Z,101133.22
2022-12-03T22:53:59.130Z,101138.63
2022-12-03T22:56:28.535Z,101126.91
2022-12-03T22:58:56.276Z,101126.19
2022-12-03T23:01:40.880Z,101124.38
2022-12-03T23:04:10.467Z,101125.25
2022-12-03T23:06:38.265Z,101126.06
2022-12-03T23:09:07.800Z,101122.44
2022-12-03T23:11:36.333Z,101120.78
2022-12-03T23:14:03.766Z,101114.59
2022-12-03T23:16:33.209Z,101113.66
2022-12-03T23:19:01.838Z,101107.47
2022-12-03T23:21:35.185Z,101108.34
2022-12-03T23:24:05.477Z,101098.63
2022-12-03T23:26:38.438Z,101092.38
2022-12-03T23:29:06.522Z,101095.03
2022-12-03T23:31:34.562Z,101085.31
2022-12-03T23:34:02.242Z,101090.50
2022-12-03T23:36:30.887Z,101083.34
2022-12-03T23:38:57.949Z,101076.41
2022-12-03T23:41:26.202Z,101074.59
2022-12-03T23:43:53.562Z,101077.22
2022-12-03T23:46:27.561Z,101076.25
2022-12-03T23:48:56.195Z,101070.28
2022-12-03T23:51:24.952Z,101069.28
2022-12-03T23:53:54.844Z,101061.38
2022-12-03T23:56:29.834Z,101056.84
2022-12-03T23:58:58.299Z,101048.78
